Nearby METAR Reports

 

EGSS - Stansted Airport, United Kingdom
Distance from station: NW 15mi, 24km
Updated: 27/01/2021 21:50
Light rain, Drizzle, Fog, Overcast
Light rain, Drizzle, Fog, Overcast
 Wind from E
Wind: E 3 mph , 6 km/h
Temperature: 7°C
Dew Point: 7°C
Humidity: 100%
Barometer: 1010 hPa
Summary: Light rain, Drizzle, Fog
Clouds: Overcast
Visibility: 0 mile , 0 km
Cloud details: Mostly cloudy 30 m
Mostly cloudy 335 m
Overcast 610 m
2021/01/27 21:50 EGSS 272150Z AUTO 09003KT 0350 R22/0600 -RADZ FG BKN001 BKN011 OVC020 07/07 Q1010
EGMC - Southend-On-Sea, United Kingdom
Distance from station: SE 15mi, 25km
Updated: 27/01/2021 16:50
NOT Current
Haze, Partly cloudy
Haze, Partly cloudy
 Wind from WSW
Wind: WSW 6 mph , 9 km/h
Temperature: 9°C
Wind Chill: 7°C
Dew Point: 9°C
Humidity: 100%
Barometer: 1011 hPa
Summary: Haze
Clouds: Partly cloudy
Visibility: 3 miles , 5 km
Cloud details: Few Clouds 305 m
Partly cloudy 366 m
2021/01/27 16:50 EGMC 271650Z 24005KT 4500 HZ FEW010 SCT012 09/09 Q1011
 
EGLC - London City Airp, United Kingdom
Distance from station: SW 24mi, 39km
Updated: 27/01/2021 21:50
Light rain, Drizzle, Partly cloudy
Light rain, Drizzle, Partly cloudy
 Wind from E
Wind: E 5 mph , 7 km/h
Temperature: 8°C
Wind Chill: 7°C
Dew Point: 8°C
Humidity: 100%
Barometer: 1010 hPa
Summary: Light rain, Drizzle
Clouds: Partly cloudy
Visibility: 2 miles , 3 km
Cloud details: Few Clouds 152 m
Partly cloudy 488 m
2021/01/27 21:50 EGLC 272150Z AUTO 08004KT 2900 -RADZ FEW005 SCT016 08/08 Q1010 RERA
EGUW - Wattisham Raf, United Kingdom
Distance from station: NE 34mi, 54km
Updated: 27/01/2021 20:50
NOT Current
Mostly cloudy
Mostly cloudy
 Wind from SSW
Wind: SSW 1 mph , 2 km/h
Temperature: 7°C
Dew Point: 7°C
Humidity: 100%
Barometer: 1010 hPa
Clouds: Mostly cloudy
Visibility: 2 miles , 4 km
Cloud details: Partly cloudy 457 m
Mostly cloudy 762 m
Mostly cloudy 4572 m
2021/01/27 20:50 EGUW 272050Z AUTO 20001KT 3900 SCT015/// BKN025/// BKN150/// 07/07 Q1010
 
EGGW - Luton Airport, United Kingdom
Distance from station: WNW 37mi, 59km
Updated: 27/01/2021 21:50
Drizzle, Fog
Drizzle, Fog
 Wind from SE
Wind: SE 6 mph , 9 km/h
Temperature: 8°C
Wind Chill: 6°C
Dew Point: 7°C
Humidity: 93%
Barometer: 1009 hPa
Summary: Drizzle, Fog
Visibility: 0 mile , 1 km
2021/01/27 21:50 EGGW 272150Z AUTO 13005KT 0500 R25/0650 DZ FG VV/// 08/07 Q1009
EGWU - Northolt Raf, United Kingdom
Distance from station: WSW 40mi, 64km
Updated: 27/01/2021 21:50
Mostly cloudy
Mostly cloudy
 Wind from SSE
Wind: SSE 2 mph , 4 km/h
Clouds: Mostly cloudy
Visibility: 1 mile , 2 km
Cloud details: Mostly cloudy 61 m
Mostly cloudy 1219 m
2021/01/27 21:50 EGWU 272150Z AUTO 15002KT 2300 // BKN002/// BKN040/// 09